Time,TemperatureC,DewpointC,PressurehPa,WindDirection,WindDirectionDegrees,WindSpeedKMH,WindSpeedGustKMH,Humidity,HourlyPrecipMM,Conditions,Clouds,dailyrainMM,SolarRadiationWatts/m^2,UVIndex,SoftwareType,DateUTC
2022-07-01 23:34:55,2.7,1.7,1014.0,WNW,288,0.1,1.9,93,0.0,,,0.4,0,0,n/a,2022-07-01T11:34:55Z
2022-07-01 23:39:54,2.8,1.8,1014.0,WNW,288,0.3,1.9,93,0.0,,,0.4,0,0,n/a,2022-07-01T11:39:54Z
2022-07-01 23:44:58,2.8,1.8,1014.3,SSE,159,1.1,5.6,93,0.0,,,0.4,0,0,n/a,2022-07-01T11:44:58Z
2022-07-01 23:49:59,2.9,1.9,1014.3,ESE,121,0.1,1.9,93,0.0,,,0.4,0,0,n/a,2022-07-01T11:49:59Z
2022-07-01 23:54:55,2.9,1.9,1014.3,ESE,121,0,0,93,0.0,,,0.4,0,0,n/a,2022-07-01T11:54:55Z
2022-07-01 23:59:57,2.9,1.9,1014.3,ESE,121,0,1.6,93,0.0,,,0.4,0,0,n/a,2022-07-01T11:59:57Z
2022-07-02 00:04:55,3,2,1014.6,SE,126,1,4.8,93,0.0,,,0.0,0,0,n/a,2022-07-01T12:04:55Z
2022-07-02 00:09:50,3.1,2.1,1014.8,SE,137,4,6.4,93,0.0,,,0.0,0,0,n/a,2022-07-01T12:09:50Z
2022-07-02 00:14:59,3.3,2.3,1014.9,SE,141,1.6,4.8,93,0.0,,,0.0,0,0,n/a,2022-07-01T12:14:59Z
2022-07-02 00:19:58,3.5,2.6,1015.1,SE,145,2.1,6.4,93.5,0.0,,,0.0,0,0,n/a,2022-07-01T12:19:58Z
2022-07-02 00:24:58,3.8,2.8,1015.1,SE,132,4.6,12.9,93,0.0,,,0.0,0,0,n/a,2022-07-01T12:24:58Z
2022-07-02 00:29:57,4.5,3.5,1015.1,SE,138,3.9,13,93.2,0.0,,,0.0,0,0,n/a,2022-07-01T12:29:57Z
2022-07-02 00:34:56,5.4,4.3,1015.3,SE,129,3.3,6.4,92.6,0.0,,,0.0,0,0,n/a,2022-07-01T12:34:56Z
2022-07-02 00:39:55,6.2,4.6,1015.4,SE,134,3.4,6.4,89.8,0.0,,,0.0,0,0,n/a,2022-07-01T12:39:55Z
2022-07-02 00:44:57,6.5,4.3,1015.5,SE,138,0.9,3.7,85.5,0.0,,,0.0,0,0,n/a,2022-07-01T12:44:57Z
2022-07-02 00:49:59,6.5,3.9,1015.5,West,260,1.4,3.7,83.2,0.0,,,0.0,0,0,n/a,2022-07-01T12:49:59Z
2022-07-02 00:54:54,6.4,3.5,1015.5,West,269,1.3,3.7,81.7,0.0,,,0.0,0,0,n/a,2022-07-01T12:54:54Z
2022-07-02 00:59:56,6.3,3.3,1015.5,West,269,0.2,3.7,81,0.0,,,0.0,0,0,n/a,2022-07-01T12:59:56Z
2022-07-02 01:04:58,6.2,3.2,1015.5,West,269,0.1,1.9,81,0.0,,,0.0,0,0,n/a,2022-07-01T13:04:58Z
2022-07-02 01:09:57,6,2.9,1015.6,West,269,0,0,80.4,0.0,,,0.0,0,0,n/a,2022-07-01T13:09:57Z
2022-07-02 01:14:59,5.7,2.7,1015.6,West,269,0,0,80.8,0.0,,,0.0,0,0,n/a,2022-07-01T13:14:59Z
2022-07-02 01:19:55,5.4,2.4,1015.7,West,269,0,0,80.8,0.0,,,0.0,0,0,n/a,2022-07-01T13:19:55Z
2022-07-02 01:24:57,5.2,2.3,1015.7,West,269,0,0,81.4,0.0,,,0.0,0,0,n/a,2022-07-01T13:24:57Z
2022-07-02 01:29:54,4.9,2.1,1015.8,West,269,0.1,1.6,82,0.0,,,0.0,0,0,n/a,2022-07-01T13:29:54Z
2022-07-02 01:34:56,4.6,1.8,1016.1,WSW,252,0.9,3.7,82.3,0.0,,,0.0,0,0,n/a,2022-07-01T13:34:56Z
2022-07-02 01:39:59,4.4,1.7,1016.0,WSW,240,0,1.9,83,0.0,,,0.0,0,0,n/a,2022-07-01T13:39:59Z
2022-07-02 01:44:55,4,1.6,1016.0,WSW,240,0,1.9,83.8,0.0,,,0.0,0,0,n/a,2022-07-01T13:44:55Z
2022-07-02 01:49:57,3.8,1.5,1016.0,WSW,240,0,0,84.8,0.0,,,0.0,0,0,n/a,2022-07-01T13:49:57Z
2022-07-02 01:54:56,3.6,1.4,1016.0,WSW,240,0,1.9,85.3,0.0,,,0.0,0,0,n/a,2022-07-01T13:54:56Z
2022-07-02 01:59:58,3.4,1.3,1016.2,WSW,240,0,0,86,0.0,,,0.0,0,0,n/a,2022-07-01T13:59:58Z
2022-07-02 02:04:55,3.2,1.1,1016.4,WSW,240,0,0,86,0.0,,,0.0,0,0,n/a,2022-07-01T14:04:55Z
2022-07-02 02:09:58,2.9,0.8,1016.4,WSW,240,0,0,86,0.0,,,0.0,0,0,n/a,2022-07-01T14:09:58Z
2022-07-02 02:14:58,2.7,0.6,1016.5,WSW,240,0,0,86.5,0.0,,,0.0,0,0,n/a,2022-07-01T14:14:58Z
2022-07-02 02:19:56,2.5,0.6,1016.5,WSW,240,0.7,1.9,87.3,0.0,,,0.0,0,0,n/a,2022-07-01T14:19:56Z
2022-07-02 02:24:57,2.4,0.7,1016.6,WSW,240,0.5,1.9,88,0.0,,,0.0,0,0,n/a,2022-07-01T14:24:57Z
2022-07-02 02:29:55,2.3,0.7,1016.7,WSW,240,0,0,88.8,0.0,,,0.0,0,0,n/a,2022-07-01T14:29:55Z
2022-07-02 02:34:56,2.2,0.6,1016.7,WSW,240,0,0,89,0.0,,,0.0,0,0,n/a,2022-07-01T14:34:56Z
2022-07-02 02:39:56,2.1,0.5,1016.8,WSW,240,0,0,89,0.0,,,0.0,0,0,n/a,2022-07-01T14:39:56Z
2022-07-02 02:44:59,2,0.3,1016.9,WSW,240,0,0,89,0.0,,,0.0,0,0,n/a,2022-07-01T14:44:59Z
2022-07-02 02:49:55,1.9,0.3,1016.9,WSW,240,0,0,89.4,0.0,,,0.0,0,0,n/a,2022-07-01T14:49:55Z
2022-07-02 02:54:57,1.8,0.4,1017.0,WSW,240,0,0,90,0.0,,,0.0,0,0,n/a,2022-07-01T14:54:57Z
2022-07-02 02:59:59,1.7,0.3,1017.0,WSW,240,0,0,90,0.0,,,0.0,0,0,n/a,2022-07-01T14:59:59Z
2022-07-02 03:04:55,1.6,0.2,1017.0,WSW,240,0,1.6,90,0.0,,,0.0,0,0,n/a,2022-07-01T15:04:55Z
2022-07-02 03:09:58,1.5,0,1017.1,WSW,240,0.2,1.9,90,0.0,,,0.0,0,0,n/a,2022-07-01T15:09:58Z
2022-07-02 03:14:55,1.4,0,1017.2,WNW,286,1.2,3.7,90,0.0,,,0.0,0,0,n/a,2022-07-01T15:14:55Z
2022-07-02 03:19:58,1.4,0.1,1017.2,WNW,296,0.3,1.9,90.8,0.0,,,0.0,0,0,n/a,2022-07-01T15:19:58Z
2022-07-02 03:24:55,1.4,0.1,1017.1,WNW,296,0.4,1.9,91,0.0,,,0.0,0,0,n/a,2022-07-01T15:24:55Z
2022-07-02 03:29:57,1.3,0,1017.1,WNW,296,0.6,1.9,91,0.0,,,0.0,0,0,n/a,2022-07-01T15:29:57Z
2022-07-02 03:34:59,1.3,-0.1,1017.1,WNW,296,0.2,1.9,91,0.0,,,0.0,0,0,n/a,2022-07-01T15:34:59Z
2022-07-02 03:39:57,1.2,-0.1,1017.2,WNW,296,0,1.9,91,0.0,,,0.0,0,0,n/a,2022-07-01T15:39:57Z
2022-07-02 03:44:54,1.1,-0.2,1017.2,WNW,292,1.8,5.6,91,0.0,,,0.0,0,0,n/a,2022-07-01T15:44:54Z
2022-07-02 03:49:55,1.2,0,1017.3,West,279,2.1,5.6,91.6,0.0,,,0.0,0,0,n/a,2022-07-01T15:49:55Z
2022-07-02 03:54:58,1.4,0.3,1017.2,WNW,282,0.9,3.7,92,0.0,,,0.0,0,0,n/a,2022-07-01T15:54:58Z
2022-07-02 03:59:54,1.7,0.5,1017.3,WNW,282,0.5,1.9,92,0.0,,,0.0,0,0,n/a,2022-07-01T15:59:54Z
2022-07-02 04:04:56,1.8,0.6,1017.3,WNW,282,0,1.9,92,0.0,,,0.0,0,0,n/a,2022-07-01T16:04:56Z
2022-07-02 04:09:58,1.7,0.5,1017.3,WNW,282,0,1.9,92,0.0,,,0.0,0,0,n/a,2022-07-01T16:09:58Z
2022-07-02 04:14:54,1.5,0.4,1017.3,WNW,282,0,0,92,0.0,,,0.0,0,0,n/a,2022-07-01T16:14:54Z
2022-07-02 04:19:56,1.4,0.2,1017.5,WNW,282,0,0,91.7,0.0,,,0.0,0,0,n/a,2022-07-01T16:19:56Z
2022-07-02 04:24:58,1.2,0.1,1017.5,WNW,282,0,0,91.9,0.0,,,0.0,0,0,n/a,2022-07-01T16:24:58Z
2022-07-02 04:29:54,1.1,-0.1,1017.5,WNW,282,0,0,91.5,0.0,,,0.0,0,0,n/a,2022-07-01T16:29:54Z
2022-07-02 04:34:56,1,-0.1,1017.5,WNW,282,0,0,92,0.0,,,0.0,0,0,n/a,2022-07-01T16:34:56Z
2022-07-02 04:39:54,0.9,-0.3,1017.5,WNW,282,0,0,91.4,0.0,,,0.0,0,0,n/a,2022-07-01T16:39:54Z
2022-07-02 04:44:57,0.8,-0.4,1017.5,WNW,282,0,0,91.7,0.0,,,0.0,0,0,n/a,2022-07-01T16:44:57Z
2022-07-02 04:49:58,0.7,-0.5,1017.6,WNW,282,0,0,92,0.0,,,0.0,0,0,n/a,2022-07-01T16:49:58Z
2022-07-02 04:54:54,0.6,-0.6,1017.7,WNW,282,0,0,92,0.0,,,0.0,0,0,n/a,2022-07-01T16:54:54Z
2022-07-02 04:59:56,0.5,-0.6,1017.8,WNW,282,0,1.9,92,0.0,,,0.0,0,0,n/a,2022-07-01T16:59:56Z
2022-07-02 05:04:57,0.6,-0.6,1017.8,WNW,282,0,0,92,0.0,,,0.0,0,0,n/a,2022-07-01T17:04:57Z
2022-07-02 05:09:55,0.5,-0.6,1017.8,WNW,282,0,0,92,0.0,,,0.0,0,0,n/a,2022-07-01T17:09:55Z
2022-07-02 05:14:58,0.5,-0.7,1017.7,WNW,282,0,0,92,0.0,,,0.0,0,0,n/a,2022-07-01T17:14:58Z
2022-07-02 05:19:59,0.5,-0.7,1017.7,WNW,282,0,0,92,0.0,,,0.0,0,0,n/a,2022-07-01T17:19:59Z
2022-07-02 05:24:54,0.4,-0.8,1017.8,WNW,282,0,0,92,0.0,,,0.0,0,0,n/a,2022-07-01T17:24:54Z
2022-07-02 05:29:54,0.3,-0.9,1017.8,WNW,282,0,0,92,0.0,,,0.0,0,0,n/a,2022-07-01T17:29:54Z
2022-07-02 05:34:57,0.2,-0.9,1017.9,WNW,282,0,0,92,0.0,,,0.0,0,0,n/a,2022-07-01T17:34:57Z
2022-07-02 05:39:55,0.2,-1,1017.9,WNW,282,0,0,92,0.0,,,0.0,0,0,n/a,2022-07-01T17:39:55Z
2022-07-02 05:44:58,0.2,-1,1018.0,WNW,282,0,0,92,0.0,,,0.0,0,0,n/a,2022-07-01T17:44:58Z
2022-07-02 05:49:54,0.1,-1.1,1018.0,WNW,282,0,0,92,0.0,,,0.0,0,0,n/a,2022-07-01T17:49:54Z
2022-07-02 05:54:55,0.1,-1.1,1018.0,WNW,282,0,0,92,0.0,,,0.0,0,0,n/a,2022-07-01T17:54:55Z
2022-07-02 05:59:57,0,-1.2,1018.1,WNW,282,0,0,92,0.0,,,0.0,0,0,n/a,2022-07-01T17:59:57Z
2022-07-02 06:04:59,0,-1.2,1018.2,WNW,282,0,0,92.1,0.0,,,0.0,0,0,n/a,2022-07-01T18:04:59Z
2022-07-02 06:09:57,0,-1,1018.3,WNW,282,0,0,93,0.0,,,0.0,0,0,n/a,2022-07-01T18:09:57Z
2022-07-02 06:14:59,0,-1,1018.4,WNW,282,0,0,93,0.0,,,0.0,0,0,n/a,2022-07-01T18:14:59Z
2022-07-02 06:19:55,0,-1,1018.4,WNW,282,0,0,93,0.0,,,0.0,0,0,n/a,2022-07-01T18:19:55Z
2022-07-02 06:24:58,0,-1,1018.5,WNW,282,0,0,93,0.0,,,0.0,0,0,n/a,2022-07-01T18:24:58Z
2022-07-02 06:29:55,-0.1,-1.1,1018.5,WNW,282,0,0,93,0.0,,,0.0,0,0,n/a,2022-07-01T18:29:55Z
2022-07-02 06:34:59,-0.1,-1.3,1018.5,WNW,282,0,0,92,0.0,,,0.0,0,0,n/a,2022-07-01T18:34:59Z
2022-07-02 06:39:56,-0.2,-1.3,1018.5,WNW,282,0,0,92.5,0.0,,,0.0,0,0,n/a,2022-07-01T18:39:56Z
2022-07-02 06:44:58,-0.2,-1.2,1018.7,WNW,282,0,0,93,0.0,,,0.0,0,0,n/a,2022-07-01T18:44:58Z
2022-07-02 06:49:55,-0.3,-1.3,1018.7,WNW,282,0,0,93,0.0,,,0.0,0,0,n/a,2022-07-01T18:49:55Z
2022-07-02 06:54:56,-0.3,-1.3,1018.8,WNW,282,0,0,93,0.0,,,0.0,0,0,n/a,2022-07-01T18:54:56Z
2022-07-02 06:59:59,-0.4,-1.4,1018.8,WNW,282,0,0,93,0.0,,,0.0,0,0,n/a,2022-07-01T18:59:59Z
2022-07-02 07:04:56,-0.4,-1.4,1018.9,WNW,282,0,0,93,0.0,,,0.0,0,0,n/a,2022-07-01T19:04:56Z
2022-07-02 07:09:59,-0.4,-1.4,1019.0,WNW,282,0,0,93,0.0,,,0.0,0,0,n/a,2022-07-01T19:09:59Z
2022-07-02 07:14:56,-0.4,-1.4,1019.0,WNW,282,0,0,93,0.0,,,0.0,0,0,n/a,2022-07-01T19:14:56Z
2022-07-02 07:19:57,-0.5,-1.5,1019.0,WNW,282,0,0,93,0.0,,,0.0,0,0,n/a,2022-07-01T19:19:57Z
2022-07-02 07:24:54,-0.6,-1.6,1019.0,WNW,282,0,0,93,0.0,,,0.0,0,0,n/a,2022-07-01T19:24:54Z
2022-07-02 07:29:54,-0.6,-1.6,1019.0,WNW,282,0,0,93,0.0,,,0.0,0,0,n/a,2022-07-01T19:29:54Z
2022-07-02 07:34:54,-0.6,-1.6,1019.0,WNW,282,0,0,93,0.0,,,0.0,0,0,n/a,2022-07-01T19:34:54Z
2022-07-02 07:39:59,-0.6,-1.6,1019.0,WNW,282,0,0,93,0.0,,,0.0,0,0,n/a,2022-07-01T19:39:59Z
2022-07-02 07:44:54,-0.6,-1.6,1019.0,WNW,282,0,0,93,0.0,,,0.0,0,0,n/a,2022-07-01T19:44:54Z
2022-07-02 07:49:56,-0.7,-1.7,1019.1,WNW,282,0,0,93,0.0,,,0.0,0,0,n/a,2022-07-01T19:49:56Z
2022-07-02 07:54:59,-0.8,-1.8,1019.2,WNW,282,0,0,93,0.0,,,0.0,0,0,n/a,2022-07-01T19:54:59Z
2022-07-02 07:59:55,-0.8,-1.8,1019.3,WNW,282,0,0,93,0.0,,,0.0,0,0,n/a,2022-07-01T19:59:55Z
2022-07-02 08:04:58,-0.8,-1.8,1019.3,WNW,282,0,1.9,93,0.0,,,0.0,5,0,n/a,2022-07-01T20:04:58Z
2022-07-02 08:09:55,-0.8,-1.8,1019.4,WNW,282,0,1.9,93,0.0,,,0.0,7,0,n/a,2022-07-01T20:09:55Z
2022-07-02 08:14:56,-0.7,-1.7,1019.4,WNW,282,0,0,93,0.0,,,0.0,11,0,n/a,2022-07-01T20:14:56Z
2022-07-02 08:19:57,-0.7,-1.7,1019.5,WNW,282,0,0,93,0.0,,,0.0,14,0,n/a,2022-07-01T20:19:57Z
2022-07-02 08:24:59,-0.7,-1.7,1019.6,WNW,282,0,1.6,93,0.0,,,0.0,18,0,n/a,2022-07-01T20:24:59Z
2022-07-02 08:29:59,-0.6,-1.6,1019.6,WNW,282,0.1,1.9,93,0.0,,,0.0,21,0,n/a,2022-07-01T20:29:59Z
2022-07-02 08:34:56,-0.5,-1.5,1019.7,WNW,282,0,1.9,93,0.0,,,0.0,25,0,n/a,2022-07-01T20:34:56Z
2022-07-02 08:39:54,-0.4,-1.4,1019.7,WNW,282,0,1.9,93,0.0,,,0.0,33,0,n/a,2022-07-01T20:39:54Z
2022-07-02 08:44:57,-0.3,-1.3,1019.7,WNW,282,0,0,93,0.0,,,0.0,53,0,n/a,2022-07-01T20:44:57Z
2022-07-02 08:49:59,-0.1,-1.1,1019.7,WNW,282,0,0,93.3,0.0,,,0.0,54,0,n/a,2022-07-01T20:49:59Z
2022-07-02 08:54:57,0.1,-0.7,1019.7,WNW,282,0,0,94,0.0,,,0.0,72,0,n/a,2022-07-01T20:54:57Z
2022-07-02 08:59:58,0.3,-0.5,1019.7,WNW,282,0,0,94,0.0,,,0.0,79,0,n/a,2022-07-01T20:59:58Z
2022-07-02 09:04:59,0.5,-0.3,1019.7,WNW,282,0,1.9,94,0.0,,,0.0,79,0,n/a,2022-07-01T21:04:59Z
2022-07-02 09:09:59,0.8,-0.1,1019.7,WNW,282,0.2,1.9,94,0.0,,,0.0,88,0,n/a,2022-07-01T21:09:59Z
2022-07-02 09:14:55,1,0.2,1019.8,WNW,282,0.1,1.9,94,0.0,,,0.0,100,0,n/a,2022-07-01T21:14:55Z
2022-07-02 09:19:57,1.2,0.4,1019.9,WNW,282,0,0,94,0.0,,,0.0,111,0,n/a,2022-07-01T21:19:57Z
2022-07-02 09:24:57,1.4,0.6,1019.8,WNW,282,0,0,94,0.0,,,0.0,121,0,n/a,2022-07-01T21:24:57Z
2022-07-02 09:29:59,1.7,0.8,1019.8,WNW,282,0,0,94,0.0,,,0.0,132,0,n/a,2022-07-01T21:29:59Z
2022-07-02 09:34:58,2.1,1.2,1019.9,WNW,282,0.1,1.6,94,0.0,,,0.0,146,0,n/a,2022-07-01T21:34:58Z
2022-07-02 09:39:57,2.5,1.6,1019.9,WNW,282,0.2,1.9,94,0.0,,,0.0,156,0,n/a,2022-07-01T21:39:57Z
2022-07-02 09:44:58,2.7,1.8,1019.9,WNW,282,0.6,1.9,94,0.0,,,0.0,171,0,n/a,2022-07-01T21:44:58Z
2022-07-02 09:49:54,3,2.1,1019.8,WNW,282,0.4,1.9,94,0.0,,,0.0,185,0,n/a,2022-07-01T21:49:54Z
2022-07-02 09:54:56,3.2,2.4,1019.8,WNW,282,0,0,94,0.0,,,0.0,195,0,n/a,2022-07-01T21:54:56Z
2022-07-02 09:59:57,3.5,2.6,1019.8,WNW,282,0.3,3.2,94,0.0,,,0.0,207,0.5,n/a,2022-07-01T21:59:57Z
2022-07-02 10:04:59,3.8,2.9,1019.9,WNW,282,0.9,3.7,93.7,0.0,,,0.0,220,0.5,n/a,2022-07-01T22:04:59Z
2022-07-02 10:09:56,4.1,3.1,1019.9,WNW,283,0.5,1.9,93.3,0.0,,,0.0,232,0.5,n/a,2022-07-01T22:09:56Z
2022-07-02 10:14:58,4.4,3.4,1019.9,WNW,283,0.5,1.9,93,0.0,,,0.0,241,0.6,n/a,2022-07-01T22:14:58Z
2022-07-02 10:19:59,4.8,3.7,1020.0,WNW,283,0.7,1.9,93,0.0,,,0.0,253,0.6,n/a,2022-07-01T22:19:59Z
2022-07-02 10:24:58,5.1,4,1020.0,WNW,283,0.2,3.7,92.7,0.0,,,0.0,260,0.6,n/a,2022-07-01T22:24:58Z
2022-07-02 10:29:54,5.4,4.2,1020.0,WNW,283,0.2,1.9,92,0.0,,,0.0,271,0.7,n/a,2022-07-01T22:29:54Z
2022-07-02 10:34:55,5.8,4.5,1020.0,WNW,283,0,1.9,92,0.0,,,0.0,281,0.7,n/a,2022-07-01T22:34:55Z
2022-07-02 10:39:59,6.2,4.8,1020.1,WNW,283,0.4,1.9,91,0.0,,,0.0,283,0.7,n/a,2022-07-01T22:39:59Z
2022-07-02 10:44:55,6.4,4.8,1020.2,WNW,302,0.9,3.7,89.2,0.0,,,0.0,264,0.7,n/a,2022-07-01T22:44:55Z
2022-07-02 10:49:57,6.6,4.7,1020.2,WNW,290,0.5,3.7,87.4,0.0,,,0.0,264,0.7,n/a,2022-07-01T22:49:57Z
2022-07-02 10:54:54,6.7,4.6,1020.2,WNW,288,0.1,1.9,86.5,0.0,,,0.0,220,0.8,n/a,2022-07-01T22:54:54Z
2022-07-02 10:59:54,6.9,4.7,1020.2,WNW,288,0,0,86,0.0,,,0.0,302,0.8,n/a,2022-07-01T22:59:54Z
2022-07-02 11:04:56,7.2,4.9,1020.2,WNW,288,0.1,1.9,85.1,0.0,,,0.0,320,0.9,n/a,2022-07-01T23:04:56Z
2022-07-02 11:09:54,7.5,5,1020.1,WNW,288,0,1.9,84.3,0.0,,,0.0,323,0.9,n/a,2022-07-01T23:09:54Z
2022-07-02 11:14:56,7.9,5.4,1020.1,WNW,288,0,0,84.5,0.0,,,0.0,329,0.9,n/a,2022-07-01T23:14:56Z
2022-07-02 11:19:57,8.3,5.7,1020.1,WNW,298,0.4,3.7,83.8,0.0,,,0.0,329,1,n/a,2022-07-01T23:19:57Z
2022-07-02 11:24:59,8.7,5.9,1020.0,NE,38,0.1,3.7,82.5,0.0,,,0.0,338,1,n/a,2022-07-01T23:24:59Z
2022-07-02 11:29:54,9.1,6.1,1020.0,NE,47,0.2,1.9,81.1,0.0,,,0.0,341,1,n/a,2022-07-01T23:29:54Z
2022-07-02 11:34:57,9.5,6.2,1019.8,NNE,25,0.2,1.9,79.5,0.0,,,0.0,345,1,n/a,2022-07-01T23:34:57Z
2022-07-02 11:39:55,9.8,6.4,1019.8,ESE,123,0.6,3.7,79,0.0,,,0.0,348,1,n/a,2022-07-01T23:39:55Z
2022-07-02 11:44:57,10.1,6.6,1019.7,North,9,0.8,5.6,79,0.0,,,0.0,353,1.1,n/a,2022-07-01T23:44:57Z
2022-07-02 11:49:57,10.4,6.9,1019.6,NE,39,1.7,6.4,79.4,0.0,,,0.0,357,1.1,n/a,2022-07-01T23:49:57Z
2022-07-02 11:54:59,10.7,7.3,1019.5,NE,34,0.7,3.7,80,0.0,,,0.0,357,1.1,n/a,2022-07-01T23:54:59Z
2022-07-02 11:59:54,11,7.6,1019.5,NNE,27,1.6,5.6,79.7,0.0,,,0.0,360,1.1,n/a,2022-07-01T23:59:54Z
2022-07-02 12:04:56,11.1,7.6,1019.5,NE,38,2.2,6.4,79,0.0,,,0.0,362,1.1,n/a,2022-07-02T00:04:56Z
2022-07-02 12:09:55,11.2,7.7,1019.4,NNE,30,2.9,9.7,78.8,0.0,,,0.0,364,1.2,n/a,2022-07-02T00:09:55Z
2022-07-02 12:14:56,11.2,7.7,1019.3,NE,36,2.7,9.3,79,0.0,,,0.0,364,1.2,n/a,2022-07-02T00:14:56Z
2022-07-02 12:19:58,11.2,7.9,1019.2,NE,37,2.7,11.3,80,0.0,,,0.0,366,1.2,n/a,2022-07-02T00:19:58Z
2022-07-02 12:24:59,11.3,7.8,1019.1,NE,51,3.9,11.1,79.2,0.0,,,0.0,366,1.2,n/a,2022-07-02T00:24:59Z
2022-07-02 12:29:55,11.1,7.6,1019.0,NE,56,3.2,8,79,0.0,,,0.0,366,1.2,n/a,2022-07-02T00:29:55Z
2022-07-02 12:34:58,11.1,7.8,1018.9,NNE,12,3.3,8,80.4,0.0,,,0.0,366,1.2,n/a,2022-07-02T00:34:58Z
2022-07-02 12:39:56,11.2,8,1018.8,NNE,19,3.4,8,80.7,0.0,,,0.0,366,1.2,n/a,2022-07-02T00:39:56Z
2022-07-02 12:44:58,11.2,8,1018.8,NE,40,3,8,80.3,0.0,,,0.0,366,1.2,n/a,2022-07-02T00:44:58Z
2022-07-02 12:49:59,11.3,8.1,1018.7,NE,40,2.4,6.4,80.8,0.0,,,0.0,364,1.2,n/a,2022-07-02T00:49:59Z
2022-07-02 12:54:59,11.3,8.1,1018.7,ESE,103,2.8,9.7,80.6,0.0,,,0.0,362,1.2,n/a,2022-07-02T00:54:59Z
2022-07-02 12:59:55,11.3,8.2,1018.7,East,101,2.3,7.4,81,0.0,,,0.0,360,1.2,n/a,2022-07-02T00:59:55Z
2022-07-02 13:04:56,11.3,8.1,1018.7,East,92,3.2,6.4,81,0.0,,,0.0,359,1.1,n/a,2022-07-02T01:04:56Z
2022-07-02 13:09:59,11.2,8.2,1018.7,ESE,109,4.6,13,81.8,0.0,,,0.0,357,1.1,n/a,2022-07-02T01:09:59Z
2022-07-02 13:14:54,11.2,8.3,1018.6,ESE,104,2.1,8,82.5,0.0,,,0.0,353,1.1,n/a,2022-07-02T01:14:54Z
2022-07-02 13:19:56,11.2,8.4,1018.6,NE,44,3.2,8,83,0.0,,,0.0,352,1.1,n/a,2022-07-02T01:19:56Z
2022-07-02 13:24:58,11.3,8.6,1018.6,East,101,3.2,9.7,83,0.0,,,0.0,348,1.1,n/a,2022-07-02T01:24:58Z
2022-07-02 13:29:59,11.3,8.5,1018.5,ESE,110,4.7,14.8,83,0.0,,,0.0,345,1.1,n/a,2022-07-02T01:29:59Z
2022-07-02 13:34:59,11.3,8.6,1018.3,ESE,107,4.2,9.7,83.3,0.0,,,0.0,341,1.1,n/a,2022-07-02T01:34:59Z
2022-07-02 13:39:59,11.4,8.7,1018.3,East,97,4.3,11.3,84,0.0,,,0.0,338,1,n/a,2022-07-02T01:39:59Z
2022-07-02 13:44:54,11.5,8.9,1018.3,NE,56,4,9.7,83.8,0.0,,,0.0,332,1,n/a,2022-07-02T01:44:54Z
2022-07-02 13:49:50,11.5,8.8,1018.3,ESE,118,3.5,13,83,0.0,,,0.0,329,1,n/a,2022-07-02T01:49:50Z